Time;durP1;ratioP1;P1;durP2;ratioP2;P2;SDS_P1;SDS_P2;PMS_P1;PMS_P2;Temp;Humidity;BMP_temperature;BMP_pressure;BME280_temperature;BME280_humidity;BME280_pressure;Samples;Min_cycle;Max_cycle;Signal;HPM_P1;HPM_P2
2021/06/21 00:03:07;;;;;;;11.35;2.00;;;;;;;-148.56;100.00;61375.16;4965952;28;20078;-35
2021/06/21 00:06:31;;;;;;;9.18;2.25;;;;;;;-148.56;100.00;61375.16;4946041;28;20676;-35
2021/06/21 00:09:55;;;;;;;5.00;1.35;;;;;;;-148.56;100.00;61375.16;4941850;28;20672;-34
2021/06/21 00:13:19;;;;;;;6.53;1.88;;;;;;;-148.56;100.00;61375.16;4943319;28;20892;-36
2021/06/21 00:16:43;;;;;;;7.50;1.83;;;;;;;-148.56;100.00;61375.16;4942869;28;20031;-35
2021/06/21 00:20:07;;;;;;;8.07;2.03;;;;;;;-148.56;100.00;61375.16;4939013;28;21120;-36
2021/06/21 00:23:31;;;;;;;5.70;1.60;;;;;;;-148.56;100.00;61375.16;4931150;28;20050;-37
2021/06/21 00:26:54;;;;;;;8.15;1.55;;;;;;;-148.56;100.00;61375.16;4948809;28;20037;-39
2021/06/21 00:30:19;;;;;;;7.30;1.85;;;;;;;-148.56;100.00;61375.16;4938516;28;20059;-33
2021/06/21 00:33:43;;;;;;;6.68;1.90;;;;;;;-148.56;100.00;61375.16;4936260;28;20038;-34
2021/06/21 00:37:07;;;;;;;6.35;1.77;;;;;;;-148.56;100.00;61375.16;4942214;28;20529;-31
2021/06/21 00:40:31;;;;;;;7.03;1.77;;;;;;;-148.56;100.00;61375.16;4941484;28;20118;-38
2021/06/21 00:43:55;;;;;;;6.03;2.15;;;;;;;-148.56;100.00;61375.16;4932840;28;20093;-38
2021/06/21 00:47:19;;;;;;;4.75;1.73;;;;;;;-148.56;100.00;61375.16;4946446;28;20652;-34
2021/06/21 00:50:43;;;;;;;8.20;1.98;;;;;;;-148.56;100.00;61375.16;4943644;28;20027;-34
2021/06/21 00:54:06;;;;;;;6.32;1.50;;;;;;;-148.56;100.00;61375.16;4941476;28;20478;-38
2021/06/21 00:57:31;;;;;;;8.52;1.63;;;;;;;-148.56;100.00;61375.16;4945084;28;20109;-37
2021/06/21 01:00:58;;;;;;;4.50;1.67;;;;;;;-148.56;100.00;61375.16;4942328;28;20428;-36
2021/06/21 01:04:22;;;;;;;3.97;1.52;;;;;;;-148.56;100.00;61375.16;4941758;28;20706;-34
2021/06/21 01:07:46;;;;;;;6.75;1.67;;;;;;;-148.56;100.00;61375.16;4949110;28;20031;-36
2021/06/21 01:11:10;;;;;;;6.57;1.45;;;;;;;-148.56;100.00;61375.16;4946755;28;20153;-39
2021/06/21 01:14:49;;;;;;;7.57;1.60;;;;;;;-148.56;100.00;61375.16;4941835;28;20035;-32
2021/06/21 01:18:33;;;;;;;7.47;1.45;;;;;;;-148.56;100.00;61375.16;4975667;28;20140;-34
2021/06/21 01:22:32;;;;;;;8.73;1.92;;;;;;;-148.56;100.00;61375.16;4941848;28;20026;-30
2021/06/21 01:26:22;;;;;;;8.57;1.55;;;;;;;-148.56;100.00;61375.16;4931073;28;20222;-39
2021/06/21 01:30:05;;;;;;;6.15;1.63;;;;;;;-148.56;100.00;61375.16;4940925;28;20058;-35
2021/06/21 01:33:48;;;;;;;7.78;2.00;;;;;;;-148.56;100.00;61375.16;4934201;28;20043;-35
2021/06/21 01:37:14;;;;;;;6.72;1.95;;;;;;;-148.56;100.00;61375.16;4949830;28;20810;-38
2021/06/21 01:40:42;;;;;;;7.90;2.08;;;;;;;-148.56;100.00;61375.16;4970772;28;20156;-37
2021/06/21 01:44:08;;;;;;;4.22;1.75;;;;;;;-148.56;100.00;61375.16;4978261;28;20041;-37
2021/06/21 01:47:33;;;;;;;8.95;1.98;;;;;;;-148.56;100.00;61375.16;4944087;28;20034;-41
2021/06/21 01:50:59;;;;;;;11.18;2.08;;;;;;;-148.56;100.00;61375.16;4948787;28;20061;-36
2021/06/21 01:54:24;;;;;;;7.40;1.70;;;;;;;-148.56;100.00;61375.16;4953450;28;20027;-35
2021/06/21 01:57:48;;;;;;;7.82;2.28;;;;;;;-148.56;100.00;61375.16;4970056;28;20041;-37
2021/06/21 02:01:15;;;;;;;7.40;1.88;;;;;;;-148.56;100.00;61375.16;4965163;28;20027;-32
2021/06/21 02:04:43;;;;;;;8.48;2.00;;;;;;;-148.56;100.00;61375.16;4946220;28;20946;-38
2021/06/21 02:08:07;;;;;;;10.18;1.88;;;;;;;-148.56;100.00;61375.16;4942734;28;20113;-39
2021/06/21 02:11:31;;;;;;;9.00;1.75;;;;;;;-148.56;100.00;61375.16;4952645;28;20885;-35
2021/06/21 02:14:55;;;;;;;11.63;2.50;;;;;;;-148.56;100.00;61375.16;4938380;28;20117;-39
2021/06/21 02:18:20;;;;;;;8.85;1.60;;;;;;;-148.56;100.00;61375.16;4938818;28;20061;-41
2021/06/21 02:21:45;;;;;;;7.30;1.90;;;;;;;-148.56;100.00;61375.16;4941170;28;20046;-34
2021/06/21 02:25:10;;;;;;;8.15;1.90;;;;;;;-148.56;100.00;61375.16;4942555;28;20039;-38
2021/06/21 02:28:37;;;;;;;5.95;1.90;;;;;;;-148.56;100.00;61375.16;4944903;28;21292;-37
2021/06/21 02:32:05;;;;;;;9.57;1.92;;;;;;;-148.56;100.00;61375.16;4938137;28;20618;-31
2021/06/21 02:35:29;;;;;;;5.65;1.75;;;;;;;-148.56;100.00;61375.16;4941375;28;20049;-34
2021/06/21 02:38:54;;;;;;;6.57;1.63;;;;;;;-148.56;100.00;61375.16;4942512;28;20162;-37
2021/06/21 02:42:18;;;;;;;10.02;2.10;;;;;;;-148.56;100.00;61375.16;4944475;28;20132;-36
2021/06/21 02:45:42;;;;;;;6.97;1.70;;;;;;;-148.56;100.00;61375.16;4944921;28;20330;-37
2021/06/21 02:49:06;;;;;;;8.40;1.55;;;;;;;-148.56;100.00;61375.16;4942874;28;20034;-32
2021/06/21 02:52:35;;;;;;;8.85;1.67;;;;;;;-148.56;100.00;61375.16;4946596;28;20031;-36
2021/06/21 02:56:11;;;;;;;8.07;1.38;;;;;;;-148.56;100.00;61375.16;4951999;28;20038;-35
2021/06/21 02:59:36;;;;;;;7.68;1.88;;;;;;;-148.56;100.00;61375.16;4971745;28;20018;-39
2021/06/21 03:03:00;;;;;;;7.22;1.67;;;;;;;-148.56;100.00;61375.16;4975346;28;20590;-31
2021/06/21 03:06:24;;;;;;;6.93;1.77;;;;;;;-148.56;100.00;61375.16;4935085;28;20026;-37
2021/06/21 03:09:48;;;;;;;4.97;1.38;;;;;;;-148.56;100.00;61375.16;4939596;28;20030;-32
2021/06/21 03:13:17;;;;;;;9.07;1.90;;;;;;;-148.56;100.00;61375.16;4933652;28;20316;-33
2021/06/21 03:16:41;;;;;;;6.97;1.48;;;;;;;-148.56;100.00;61375.16;4939008;28;20750;-38
2021/06/21 03:20:05;;;;;;;7.35;1.70;;;;;;;-148.56;100.00;61375.16;4937761;28;20050;-33
2021/06/21 03:23:30;;;;;;;7.85;1.55;;;;;;;-148.56;100.00;61375.16;4941221;28;20030;-32
2021/06/21 03:27:01;;;;;;;7.57;1.85;;;;;;;-148.56;100.00;61375.16;4971906;28;20027;-34
2021/06/21 03:30:25;;;;;;;5.97;1.60;;;;;;;-148.56;100.00;61375.16;4947418;28;20113;-33
2021/06/21 03:33:49;;;;;;;7.68;1.88;;;;;;;-148.56;100.00;61375.16;4931785;28;20039;-35
2021/06/21 03:37:13;;;;;;;4.72;1.50;;;;;;;-148.56;100.00;61375.16;4944015;28;20038;-37
2021/06/21 03:40:37;;;;;;;5.72;1.77;;;;;;;-148.56;100.00;61375.16;4928834;28;20035;-39
2021/06/21 03:44:00;;;;;;;9.55;2.08;;;;;;;-148.56;100.00;61375.16;4944828;28;20053;-38
2021/06/21 03:47:24;;;;;;;7.35;1.70;;;;;;;-148.56;100.00;61375.16;4954697;28;20512;-40
2021/06/21 03:50:48;;;;;;;9.57;1.75;;;;;;;-148.56;100.00;61375.16;4973046;28;20027;-38
2021/06/21 03:54:12;;;;;;;9.13;1.70;;;;;;;-148.56;100.00;61375.16;4947522;28;20046;-38
2021/06/21 03:57:37;;;;;;;7.85;1.60;;;;;;;-148.56;100.00;61375.16;4957351;28;20050;-33
2021/06/21 04:01:03;;;;;;;8.82;2.00;;;;;;;-148.56;100.00;61375.16;4946616;28;20045;-32
2021/06/21 04:03:58;;;;;;;6.50;1.65;;;;;;;30.13;36.40;95832.66;4942240;28;21519;-38
2021/06/21 04:06:24;;;;;;;9.30;1.92;;;;;;;30.25;36.19;95854.56;4936139;28;20046;-36
2021/06/21 04:08:49;;;;;;;6.65;1.83;;;;;;;30.22;36.29;95863.59;4946402;28;20022;-32
2021/06/21 04:11:15;;;;;;;8.00;2.03;;;;;;;30.22;36.13;95866.22;4938143;28;20073;-35
2021/06/21 04:14:39;;;;;;;6.53;1.65;;;;;;;-148.56;100.00;61375.16;4943443;28;20041;-33
2021/06/21 04:17:04;;;;;;;5.95;1.60;;;;;;;30.25;36.27;95871.22;4942961;28;20030;-37
2021/06/21 04:19:30;;;;;;;9.32;1.83;;;;;;;30.24;36.33;95874.84;4941682;28;20416;-34
2021/06/21 04:21:55;;;;;;;5.82;1.73;;;;;;;30.23;36.31;95867.91;4953920;28;20029;-37
2021/06/21 04:24:21;;;;;;;5.95;1.73;;;;;;;30.23;36.37;95878.47;4952925;28;20038;-37
2021/06/21 04:26:46;;;;;;;8.63;1.70;;;;;;;30.22;36.29;95871.50;4946320;28;20667;-36
2021/06/21 04:29:11;;;;;;;8.02;1.75;;;;;;;30.22;36.37;95875.94;4946617;28;20037;-36
2021/06/21 04:31:37;;;;;;;6.63;1.73;;;;;;;30.22;36.28;95860.94;4950945;28;20056;-41
2021/06/21 04:34:02;;;;;;;10.27;2.20;;;;;;;30.22;36.40;95860.09;4947386;28;20708;-31
2021/06/21 04:36:28;;;;;;;8.80;1.83;;;;;;;30.21;36.11;95861.06;4939475;28;20047;-34
2021/06/21 04:38:53;;;;;;;9.68;1.67;;;;;;;30.22;36.09;95850.38;4948992;28;20062;-34
2021/06/21 04:41:18;;;;;;;7.70;1.35;;;;;;;30.21;36.35;95848.69;4951623;28;20223;-35
2021/06/21 04:43:44;;;;;;;6.18;1.60;;;;;;;30.21;36.15;95853.97;4931935;28;20681;-34
2021/06/21 04:46:09;;;;;;;7.68;2.10;;;;;;;30.21;36.18;95853.97;4949491;28;20038;-31
2021/06/21 04:48:35;;;;;;;8.77;1.90;;;;;;;30.22;36.40;95865.38;4967817;28;20039;-32
2021/06/21 04:51:00;;;;;;;12.48;2.00;;;;;;;30.23;36.08;95861.75;4945795;28;20045;-33
2021/06/21 04:53:26;;;;;;;7.53;1.65;;;;;;;30.24;36.23;95864.28;4948914;28;20050;-35
2021/06/21 04:55:52;;;;;;;7.40;1.65;;;;;;;30.24;36.17;95860.78;4949522;28;20034;-39
2021/06/21 04:58:17;;;;;;;5.95;1.75;;;;;;;30.25;36.36;95855.38;4938799;28;20073;-31
2021/06/21 05:00:43;;;;;;;7.95;1.58;;;;;;;30.27;36.29;95851.75;4926173;28;20054;-37
2021/06/21 05:03:09;;;;;;;8.05;1.63;;;;;;;30.29;36.17;95863.03;4953301;28;20260;-36
2021/06/21 05:05:34;;;;;;;6.63;1.70;;;;;;;30.29;36.21;95863.91;4948671;28;20038;-33
2021/06/21 05:08:58;;;;;;;9.10;1.67;;;;;;;-148.56;100.00;61375.16;4939934;28;20045;-35
2021/06/21 05:12:22;;;;;;;9.63;1.85;;;;;;;-148.56;100.00;61375.16;4949637;28;20438;-36
2021/06/21 05:15:46;;;;;;;7.53;2.00;;;;;;;-148.56;100.00;61375.16;4969183;28;20065;-36
2021/06/21 05:18:11;;;;;;;7.32;1.88;;;;;;;30.39;35.86;95877.13;4974948;28;20022;-36
2021/06/21 05:20:37;;;;;;;8.93;1.60;;;;;;;30.36;36.04;95866.84;4948744;28;20587;-35
2021/06/21 05:23:02;;;;;;;5.40;1.80;;;;;;;30.36;36.10;95867.66;4952490;28;20058;-35
2021/06/21 05:25:29;;;;;;;7.72;1.80;;;;;;;30.36;36.09;95867.66;4949152;28;20100;-37
2021/06/21 05:27:54;;;;;;;12.07;2.15;;;;;;;30.36;35.98;95872.94;4982343;28;20018;-36
2021/06/21 05:31:18;;;;;;;8.32;2.03;;;;;;;-148.56;100.00;61375.16;4946633;28;20031;-38
2021/06/21 05:34:42;;;;;;;10.77;2.10;;;;;;;-148.56;100.00;61375.16;4953285;28;20069;-39
2021/06/21 05:38:06;;;;;;;11.18;2.00;;;;;;;-148.56;100.00;61375.16;4946960;28;20743;-33
2021/06/21 05:41:30;;;;;;;8.25;2.00;;;;;;;-148.56;100.00;61375.16;4972180;28;20727;-37
2021/06/21 05:44:54;;;;;;;6.72;2.20;;;;;;;-148.56;100.00;61375.16;4933596;28;20068;-31
2021/06/21 05:48:17;;;;;;;12.73;2.10;;;;;;;-148.56;100.00;61375.16;4948635;28;20156;-36
2021/06/21 05:51:41;;;;;;;8.23;2.08;;;;;;;-148.56;100.00;61375.16;4945372;28;20029;-39
2021/06/21 05:55:06;;;;;;;12.15;2.03;;;;;;;-148.56;100.00;61375.16;4944276;28;20032;-38
2021/06/21 05:58:30;;;;;;;12.55;2.30;;;;;;;-148.56;100.00;61375.16;4950889;28;20022;-42
2021/06/21 06:01:39;;;;;;;9.32;2.10;;;;;;;;;;4943910;28;20573;-35
2021/06/21 06:04:04;;;;;;;8.75;2.25;;;;;;;30.46;35.41;95870.34;4940999;28;20655;-31
2021/06/21 06:06:29;;;;;;;12.25;2.10;;;;;;;30.45;35.51;95876.59;4948937;28;20093;-38
2021/06/21 06:08:55;;;;;;;10.00;1.98;;;;;;;30.44;35.36;95880.19;4944111;28;20037;-38
2021/06/21 06:11:20;;;;;;;8.82;2.10;;;;;;;30.44;35.79;95882.84;4944367;28;20027;-36
2021/06/21 06:13:46;;;;;;;14.57;2.17;;;;;;;30.42;35.74;95882.16;4942696;28;20027;-40
2021/06/21 06:17:09;;;;;;;10.30;1.75;;;;;;;-148.56;100.00;61375.16;4972701;28;20779;-35
2021/06/21 06:20:33;;;;;;;7.05;1.80;;;;;;;-148.56;100.00;61375.16;4938964;28;20039;-32
2021/06/21 06:23:57;;;;;;;11.48;2.22;;;;;;;-148.56;100.00;61375.16;4953559;28;20330;-39
2021/06/21 06:27:21;;;;;;;11.20;2.10;;;;;;;-148.56;100.00;61375.16;4968021;28;20867;-37
2021/06/21 06:30:45;;;;;;;7.65;1.73;;;;;;;-148.56;100.00;61375.16;4957882;28;20139;-35
2021/06/21 06:34:09;;;;;;;7.65;1.90;;;;;;;-148.56;100.00;61375.16;4934339;28;20069;-37
2021/06/21 06:37:33;;;;;;;6.93;1.77;;;;;;;-148.56;100.00;61375.16;4940147;28;20518;-38
2021/06/21 06:40:58;;;;;;;7.45;2.20;;;;;;;-148.56;100.00;61375.16;4930029;28;21538;-34
2021/06/21 06:44:22;;;;;;;11.43;2.45;;;;;;;-148.56;100.00;61375.16;4937463;28;20023;-34
2021/06/21 06:47:46;;;;;;;7.85;2.22;;;;;;;-148.56;100.00;61375.16;4943179;28;20544;-39
2021/06/21 06:51:10;;;;;;;12.63;2.13;;;;;;;-148.56;100.00;61375.16;4939853;28;20522;-38
2021/06/21 06:54:46;;;;;;;7.18;2.05;;;;;;;-148.56;100.00;61375.16;4939502;28;20728;-34
2021/06/21 06:58:11;;;;;;;8.27;2.08;;;;;;;-148.56;100.00;61375.16;4936986;28;20071;-37
2021/06/21 07:01:35;;;;;;;10.70;2.63;;;;;;;-148.56;100.00;61375.16;4950013;28;20141;-38
2021/06/21 07:05:00;;;;;;;11.63;2.08;;;;;;;-148.56;100.00;61375.16;4940847;28;20469;-34
2021/06/21 07:08:23;;;;;;;7.90;2.38;;;;;;;-148.56;100.00;61375.16;4937328;28;20035;-35
2021/06/21 07:11:48;;;;;;;11.98;2.40;;;;;;;-148.56;100.00;61375.16;4939269;28;20030;-37
2021/06/21 07:15:12;;;;;;;9.95;2.10;;;;;;;-148.56;100.00;61375.16;4940355;28;20031;-37
2021/06/21 07:18:36;;;;;;;11.75;2.50;;;;;;;-148.56;100.00;61375.16;4939941;28;20889;-39
2021/06/21 07:22:01;;;;;;;10.70;2.25;;;;;;;-148.56;100.00;61375.16;4939250;28;20042;-35
2021/06/21 07:25:25;;;;;;;11.38;2.35;;;;;;;-148.56;100.00;61375.16;4939150;28;20046;-36
2021/06/21 07:28:49;;;;;;;9.80;2.13;;;;;;;-148.56;100.00;61375.16;4941697;28;20124;-37
2021/06/21 07:32:13;;;;;;;9.20;2.25;;;;;;;-148.56;100.00;61375.16;4937315;28;20039;-39
2021/06/21 07:35:40;;;;;;;10.38;2.60;;;;;;;-148.56;100.00;61375.16;4935903;28;20134;-38
2021/06/21 07:39:04;;;;;;;9.00;1.90;;;;;;;-148.56;100.00;61375.16;4971006;28;20260;-39
2021/06/21 07:42:28;;;;;;;6.35;1.70;;;;;;;-148.56;100.00;61375.16;4927793;28;20039;-40
2021/06/21 07:45:52;;;;;;;10.00;2.33;;;;;;;-148.56;100.00;61375.16;4941525;28;20035;-31
2021/06/21 07:49:16;;;;;;;11.30;2.28;;;;;;;-148.56;100.00;61375.16;4937442;28;20533;-30
2021/06/21 07:52:41;;;;;;;7.97;1.90;;;;;;;-148.56;100.00;61375.16;4935663;28;20557;-40
2021/06/21 07:56:07;;;;;;;7.65;1.98;;;;;;;-148.56;100.00;61375.16;4939774;28;20031;-32
2021/06/21 07:59:32;;;;;;;8.63;2.13;;;;;;;-148.56;100.00;61375.16;4930098;28;20038;-31
2021/06/21 08:02:55;;;;;;;10.10;2.33;;;;;;;-148.56;100.00;61375.16;4932685;28;20073;-36
2021/06/21 08:06:19;;;;;;;8.43;1.67;;;;;;;-148.56;100.00;61375.16;4938456;28;20127;-39
2021/06/21 08:09:43;;;;;;;10.77;2.22;;;;;;;-148.56;100.00;61375.16;4938526;28;20038;-38
2021/06/21 08:13:07;;;;;;;7.75;2.08;;;;;;;-148.56;100.00;61375.16;4939484;28;20037;-39
2021/06/21 08:16:32;;;;;;;8.75;2.10;;;;;;;-148.56;100.00;61375.16;4938195;28;20664;-42
2021/06/21 08:19:56;;;;;;;7.82;2.20;;;;;;;-148.56;100.00;61375.16;4939215;28;20749;-39
2021/06/21 08:23:20;;;;;;;13.50;2.15;;;;;;;-148.56;100.00;61375.16;4941298;28;20051;-37
2021/06/21 08:26:44;;;;;;;9.10;2.17;;;;;;;-148.56;100.00;61375.16;4940904;28;20061;-33
2021/06/21 08:30:08;;;;;;;18.35;2.30;;;;;;;-148.56;100.00;61375.16;4940583;28;20037;-40
2021/06/21 08:33:32;;;;;;;10.23;2.05;;;;;;;-148.56;100.00;61375.16;4964796;28;20109;-33
2021/06/21 08:36:56;;;;;;;6.25;1.63;;;;;;;-148.56;100.00;61375.16;4944822;28;20042;-37
2021/06/21 08:40:21;;;;;;;5.93;2.13;;;;;;;-148.56;100.00;61375.16;4941771;28;20030;-35
2021/06/21 08:43:45;;;;;;;7.70;2.20;;;;;;;-148.56;100.00;61375.16;4947617;28;20037;-39
2021/06/21 08:47:11;;;;;;;9.00;2.05;;;;;;;-148.56;100.00;61375.16;4946431;28;20135;-39
2021/06/21 08:50:39;;;;;;;15.77;2.33;;;;;;;-148.56;100.00;61375.16;4948598;28;20722;-33
2021/06/21 08:54:03;;;;;;;13.05;2.38;;;;;;;-148.56;100.00;61375.16;4960679;28;20110;-40
2021/06/21 08:57:27;;;;;;;10.40;2.20;;;;;;;-148.56;100.00;61375.16;4943827;28;20099;-35
2021/06/21 09:00:51;;;;;;;8.48;2.10;;;;;;;-148.56;100.00;61375.16;4946560;28;20030;-38
2021/06/21 09:04:14;;;;;;;11.98;1.92;;;;;;;-148.56;100.00;61375.16;4948956;28;20513;-37
2021/06/21 09:07:40;;;;;;;7.57;2.05;;;;;;;-148.56;100.00;61375.16;4980272;28;20031;-31
2021/06/21 09:11:14;;;;;;;8.93;1.80;;;;;;;-148.56;100.00;61375.16;4947591;28;20037;-29
2021/06/21 09:14:38;;;;;;;8.48;2.15;;;;;;;-148.56;100.00;61375.16;4948835;28;20777;-39
2021/06/21 09:18:24;;;;;;;6.82;1.60;;;;;;;-148.56;100.00;61375.16;4938375;28;20125;-36
2021/06/21 09:21:49;;;;;;;9.35;2.17;;;;;;;-148.56;100.00;61375.16;4950138;28;20042;-37
2021/06/21 09:25:26;;;;;;;8.23;1.98;;;;;;;-148.56;100.00;61375.16;4949310;28;20053;-36
2021/06/21 09:28:54;;;;;;;10.07;1.80;;;;;;;-148.56;100.00;61375.16;4950820;28;20031;-38
2021/06/21 09:32:18;;;;;;;9.60;1.98;;;;;;;-148.56;100.00;61375.16;4946248;28;20530;-33
2021/06/21 09:35:42;;;;;;;11.23;2.00;;;;;;;-148.56;100.00;61375.16;4949401;28;20043;-37
2021/06/21 09:39:23;;;;;;;10.75;1.80;;;;;;;-148.56;100.00;61375.16;4949627;28;20030;-36
2021/06/21 09:42:27;;;;;;;6.65;1.65;;;;;;;30.42;35.74;95882.16;4942287;28;20369;-32
2021/06/21 09:46:01;;;;;;;6.38;2.03;;;;;;;-148.56;100.00;61375.16;4949127;28;20026;-37
2021/06/21 09:49:31;;;;;;;6.65;2.03;;;;;;;-148.56;100.00;61375.16;4948229;28;20620;-36
2021/06/21 09:52:59;;;;;;;8.05;1.83;;;;;;;-148.56;100.00;61375.16;4946055;28;20538;-34
2021/06/21 09:56:49;;;;;;;10.52;1.88;;;;;;;-148.56;100.00;61375.16;4944761;28;20053;-35
2021/06/21 10:00:22;;;;;;;5.13;1.35;;;;;;;-148.56;100.00;61375.16;4949900;28;20136;-33
2021/06/21 10:03:45;;;;;;;6.35;1.50;;;;;;;-148.56;100.00;61375.16;4953507;28;20647;-32
2021/06/21 10:07:28;;;;;;;7.50;1.50;;;;;;;-148.56;100.00;61375.16;4946514;28;20125;-32
2021/06/21 10:11:06;;;;;;;4.90;1.40;;;;;;;-148.56;100.00;61375.16;4950913;28;20687;-39
2021/06/21 10:14:30;;;;;;;5.18;1.70;;;;;;;-148.56;100.00;61375.16;4943590;28;21868;-39
2021/06/21 10:17:54;;;;;;;6.40;1.70;;;;;;;-148.56;100.00;61375.16;4949876;28;20034;-38
2021/06/21 10:21:18;;;;;;;6.18;1.90;;;;;;;-148.56;100.00;61375.16;4950086;28;20087;-31
2021/06/21 10:24:41;;;;;;;5.15;1.98;;;;;;;-148.56;100.00;61375.16;4946959;28;20034;-31
2021/06/21 10:28:05;;;;;;;7.70;2.30;;;;;;;-148.56;100.00;61375.16;4955819;28;20038;-31
2021/06/21 10:31:29;;;;;;;5.22;2.10;;;;;;;-148.56;100.00;61375.16;4978243;28;20568;-35
2021/06/21 10:35:03;;;;;;;8.60;2.10;;;;;;;-148.56;100.00;61375.16;4952737;28;20031;-34
2021/06/21 10:38:27;;;;;;;9.95;2.40;;;;;;;-148.56;100.00;61375.16;4946167;28;20035;-34
2021/06/21 10:42:12;;;;;;;6.05;2.00;;;;;;;-148.56;100.00;61375.16;4947481;28;20038;-38
2021/06/21 10:45:37;;;;;;;7.43;2.25;;;;;;;-148.56;100.00;61375.16;4944226;28;20038;-37
2021/06/21 10:49:06;;;;;;;7.03;2.10;;;;;;;-148.56;100.00;61375.16;4941503;28;20030;-32
2021/06/21 10:52:44;;;;;;;6.53;1.95;;;;;;;-148.56;100.00;61375.16;4942956;28;20159;-37
2021/06/21 10:56:39;;;;;;;7.03;1.90;;;;;;;-148.56;100.00;61375.16;4941653;28;20042;-32
2021/06/21 11:00:17;;;;;;;7.07;1.95;;;;;;;-148.56;100.00;61375.16;4939660;28;20037;-37
2021/06/21 11:03:41;;;;;;;5.03;1.70;;;;;;;-148.56;100.00;61375.16;4941465;28;20067;-38
2021/06/21 11:07:22;;;;;;;5.05;1.95;;;;;;;-148.56;100.00;61375.16;4938985;28;20030;-39
2021/06/21 11:10:53;;;;;;;4.82;2.28;;;;;;;-148.56;100.00;61375.16;4942914;28;20027;-36
2021/06/21 11:14:26;;;;;;;6.72;1.70;;;;;;;-148.56;100.00;61375.16;4953522;28;20022;-30
2021/06/21 11:18:12;;;;;;;5.95;1.65;;;;;;;-148.56;100.00;61375.16;4973430;28;20089;-35
2021/06/21 11:20:41;;;;;;;9.68;1.80;;;;;;;30.42;35.74;95882.16;4923715;28;20046;-40
2021/06/21 11:24:05;;;;;;;11.65;1.80;;;;;;;-148.56;100.00;61375.16;4939366;28;20825;-34
2021/06/21 11:27:55;;;;;;;8.35;1.60;;;;;;;-148.56;100.00;61375.16;4942572;28;20038;-36
2021/06/21 11:31:23;;;;;;;9.73;1.52;;;;;;;-148.56;100.00;61375.16;4943646;28;20030;-38
2021/06/21 11:34:51;;;;;;;4.45;1.50;;;;;;;-148.56;100.00;61375.16;4945995;28;20094;-41
2021/06/21 11:38:30;;;;;;;6.15;1.60;;;;;;;-148.56;100.00;61375.16;4942254;28;20046;-36
2021/06/21 11:42:14;;;;;;;4.57;1.63;;;;;;;-148.56;100.00;61375.16;4947365;28;20034;-36
2021/06/21 11:45:50;;;;;;;3.22;1.48;;;;;;;-148.56;100.00;61375.16;4940747;28;20123;-33
2021/06/21 11:49:21;;;;;;;12.13;1.45;;;;;;;-148.56;100.00;61375.16;4939305;28;20031;-34
2021/06/21 11:52:55;;;;;;;8.07;1.58;;;;;;;-148.56;100.00;61375.16;4969208;28;20504;-33
2021/06/21 11:56:23;;;;;;;5.05;1.52;;;;;;;-148.56;100.00;61375.16;4939712;28;20039;-30
2021/06/21 11:59:51;;;;;;;6.68;1.65;;;;;;;-148.56;100.00;61375.16;4939277;28;20022;-33
2021/06/21 12:03:16;;;;;;;4.35;1.55;;;;;;;-148.56;100.00;61375.16;4953907;28;20043;-34
2021/06/21 12:06:49;;;;;;;4.75;1.45;;;;;;;-148.56;100.00;61375.16;4937869;28;20061;-39
2021/06/21 12:10:14;;;;;;;2.63;1.08;;;;;;;-148.56;100.00;61375.16;4927518;28;20066;-32
2021/06/21 12:13:38;;;;;;;3.92;1.20;;;;;;;-148.56;100.00;61375.16;4938789;28;20504;-37
2021/06/21 12:17:07;;;;;;;3.10;1.05;;;;;;;-148.56;100.00;61375.16;4938578;28;20035;-35
2021/06/21 12:20:33;;;;;;;6.75;1.48;;;;;;;-148.56;100.00;61375.16;4939572;28;20149;-32
2021/06/21 12:24:15;;;;;;;3.72;1.27;;;;;;;-148.56;100.00;61375.16;4944237;28;20053;-37
2021/06/21 12:27:40;;;;;;;3.78;1.15;;;;;;;-148.56;100.00;61375.16;4940970;28;20133;-35
2021/06/21 12:31:04;;;;;;;3.90;1.15;;;;;;;-148.56;100.00;61375.16;4936589;28;20041;-33
2021/06/21 12:34:40;;;;;;;2.67;1.20;;;;;;;-148.56;100.00;61375.16;4939245;28;20921;-33
2021/06/21 12:38:13;;;;;;;3.20;1.50;;;;;;;-148.56;100.00;61375.16;4936957;28;20102;-38
2021/06/21 12:41:37;;;;;;;2.15;1.10;;;;;;;-148.56;100.00;61375.16;4937941;28;20038;-33
2021/06/21 12:45:14;;;;;;;2.70;1.00;;;;;;;-148.56;100.00;61375.16;4944352;28;20031;-31
2021/06/21 12:48:42;;;;;;;6.38;1.55;;;;;;;-148.56;100.00;61375.16;4947027;28;20031;-37
2021/06/21 12:52:06;;;;;;;2.03;1.10;;;;;;;-148.56;100.00;61375.16;4941710;28;20030;-40
2021/06/21 12:55:30;;;;;;;3.05;0.93;;;;;;;-148.56;100.00;61375.16;4967347;28;20034;-37
2021/06/21 12:58:58;;;;;;;2.40;1.20;;;;;;;-148.56;100.00;61375.16;4952200;28;20030;-36
2021/06/21 13:02:25;;;;;;;2.58;1.00;;;;;;;-148.56;100.00;61375.16;4948886;28;20686;-35
2021/06/21 13:05:56;;;;;;;4.82;1.23;;;;;;;-148.56;100.00;61375.16;4951701;28;20030;-34
2021/06/21 13:09:30;;;;;;;4.05;1.10;;;;;;;-148.56;100.00;61375.16;4948639;28;20035;-33
2021/06/21 13:13:02;;;;;;;3.45;1.13;;;;;;;-148.56;100.00;61375.16;4947217;28;20043;-36
2021/06/21 13:16:27;;;;;;;2.08;0.93;;;;;;;-148.56;100.00;61375.16;4955861;28;20113;-38
2021/06/21 13:19:52;;;;;;;3.63;1.00;;;;;;;-148.56;100.00;61375.16;4948897;28;20066;-40
2021/06/21 13:23:48;;;;;;;2.90;1.10;;;;;;;-148.56;100.00;61375.16;4949514;28;20216;-31
2021/06/21 13:27:23;;;;;;;2.08;1.15;;;;;;;-148.56;100.00;61375.16;4950363;28;20023;-31
2021/06/21 13:30:47;;;;;;;2.67;1.20;;;;;;;-148.56;100.00;61375.16;4950948;28;20058;-33
2021/06/21 13:34:12;;;;;;;2.70;1.00;;;;;;;-148.56;100.00;61375.16;4950317;28;20046;-40
2021/06/21 13:37:52;;;;;;;6.28;1.60;;;;;;;-148.56;100.00;61375.16;4951663;28;20038;-35
2021/06/21 13:41:18;;;;;;;3.42;1.13;;;;;;;-148.56;100.00;61375.16;4951433;28;20092;-34
2021/06/21 13:44:50;;;;;;;2.85;1.40;;;;;;;-148.56;100.00;61375.16;4951233;28;20034;-35
2021/06/21 13:48:28;;;;;;;2.83;1.27;;;;;;;-148.56;100.00;61375.16;4949715;28;20065;-36
2021/06/21 13:51:54;;;;;;;4.53;1.10;;;;;;;-148.56;100.00;61375.16;4937084;28;20563;-32
2021/06/21 13:55:18;;;;;;;4.65;1.25;;;;;;;-148.56;100.00;61375.16;4939115;28;20053;-33
2021/06/21 13:58:43;;;;;;;1.63;0.73;;;;;;;-148.56;100.00;61375.16;4947182;28;20067;-31
2021/06/21 14:02:10;;;;;;;3.58;0.90;;;;;;;-148.56;100.00;61375.16;4942024;28;20039;-31
2021/06/21 14:05:33;;;;;;;1.67;0.73;;;;;;;-148.56;100.00;61375.16;4935222;28;20351;-37
2021/06/21 14:08:58;;;;;;;2.58;1.02;;;;;;;-148.56;100.00;61375.16;4954481;28;20034;-34
2021/06/21 14:12:23;;;;;;;3.60;1.20;;;;;;;-148.56;100.00;61375.16;4938508;28;20603;-36
2021/06/21 14:15:46;;;;;;;2.80;0.88;;;;;;;-148.56;100.00;61375.16;4938811;28;22408;-35
2021/06/21 14:19:13;;;;;;;3.28;1.20;;;;;;;-148.56;100.00;61375.16;4940805;28;20387;-35
2021/06/21 14:22:37;;;;;;;2.25;1.10;;;;;;;-148.56;100.00;61375.16;4936351;28;20886;-34
2021/06/21 14:26:00;;;;;;;4.25;0.93;;;;;;;-148.56;100.00;61375.16;4935697;28;20305;-32
2021/06/21 14:29:24;;;;;;;2.22;1.00;;;;;;;-148.56;100.00;61375.16;4967037;28;20045;-31
2021/06/21 14:32:48;;;;;;;1.88;1.20;;;;;;;-148.56;100.00;61375.16;4938978;28;20429;-42
2021/06/21 14:36:12;;;;;;;4.38;1.40;;;;;;;-148.56;100.00;61375.16;4941582;28;20513;-39
2021/06/21 14:39:36;;;;;;;1.60;0.90;;;;;;;-148.56;100.00;61375.16;4944348;28;20297;-33
2021/06/21 14:43:00;;;;;;;2.17;1.17;;;;;;;-148.56;100.00;61375.16;4942531;28;20320;-34
2021/06/21 14:46:25;;;;;;;2.72;1.10;;;;;;;-148.56;100.00;61375.16;4939757;28;20058;-31
2021/06/21 14:53:32;;;;;;;1.52;0.90;;;;;;;-148.56;100.00;61375.16;4941361;28;20833;-37
2021/06/21 14:56:56;;;;;;;3.50;1.13;;;;;;;-148.56;100.00;61375.16;4941635;28;20038;-34
2021/06/21 15:00:21;;;;;;;2.20;1.10;;;;;;;-148.56;100.00;61375.16;4940551;28;21491;-36
2021/06/21 15:03:44;;;;;;;2.47;1.00;;;;;;;-148.56;100.00;61375.16;4927969;28;20039;-37
2021/06/21 15:07:09;;;;;;;2.13;0.93;;;;;;;-148.56;100.00;61375.16;4941193;28;20033;-36
2021/06/21 15:10:33;;;;;;;2.85;1.00;;;;;;;-148.56;100.00;61375.16;4940419;28;20605;-37
2021/06/21 15:13:57;;;;;;;2.13;1.05;;;;;;;-148.56;100.00;61375.16;4939175;28;21009;-39